Time;durP1;ratioP1;P1;durP2;ratioP2;P2;SDS_P1;SDS_P2;PMS_P1;PMS_P2;Temp;Humidity;BMP_temperature;BMP_pressure;BME280_temperature;BME280_humidity;BME280_pressure;Samples;Min_cycle;Max_cycle;Signal;HPM_P1;HPM_P2
2023/12/13 00:01:45;;;;;;;52.35;42.08;;;7.90;99.90;;;;;;4969147;28;20046;-78
2023/12/13 00:04:11;;;;;;;53.10;43.13;;;7.90;99.90;;;;;;4966517;28;20109;-78
2023/12/13 00:06:37;;;;;;;53.55;40.90;;;7.90;99.90;;;;;;4970888;28;20027;-78
2023/12/13 00:09:03;;;;;;;69.00;48.42;;;8.00;99.90;;;;;;4972723;28;20290;-78
2023/12/13 00:11:28;;;;;;;62.85;46.38;;;7.90;99.90;;;;;;4960990;28;20101;-78
2023/12/13 00:13:54;;;;;;;70.82;49.60;;;7.90;99.90;;;;;;4951331;28;20063;-78
2023/12/13 00:16:21;;;;;;;55.97;45.20;;;7.90;99.90;;;;;;4964874;28;20400;-78
2023/12/13 00:18:47;;;;;;;54.30;41.58;;;7.90;99.90;;;;;;4962827;28;20493;-78
2023/12/13 00:21:16;;;;;;;61.60;45.90;;;7.90;99.90;;;;;;4964509;28;20031;-78
2023/12/13 00:23:42;;;;;;;57.35;44.50;;;7.90;99.90;;;;;;4948907;28;20536;-78
2023/12/13 00:26:18;;;;;;;55.20;42.95;;;7.90;99.90;;;;;;4965355;28;20035;-77
2023/12/13 00:28:45;;;;;;;62.05;45.58;;;7.90;99.90;;;;;;4952731;28;20375;-78
2023/12/13 00:31:11;;;;;;;53.47;43.72;;;8.00;99.90;;;;;;4964747;28;20089;-78
2023/12/13 00:33:38;;;;;;;58.70;44.63;;;8.00;99.90;;;;;;4966826;28;20051;-78
2023/12/13 00:36:05;;;;;;;53.58;43.15;;;8.00;99.90;;;;;;4963219;28;20027;-78
2023/12/13 00:38:30;;;;;;;48.83;40.88;;;8.00;99.90;;;;;;4965322;28;20034;-78
2023/12/13 00:40:56;;;;;;;49.05;40.97;;;8.00;99.90;;;;;;4966572;28;20030;-78
2023/12/13 00:43:22;;;;;;;53.63;42.47;;;8.00;99.90;;;;;;4963339;28;20027;-78
2023/12/13 00:45:48;;;;;;;44.00;36.97;;;8.00;99.90;;;;;;4964414;28;20037;-77
2023/12/13 00:48:14;;;;;;;44.50;35.00;;;8.00;99.90;;;;;;4964446;28;20034;-77
2023/12/13 00:50:39;;;;;;;49.70;41.20;;;8.00;99.90;;;;;;4961608;28;20023;-78
2023/12/13 00:53:05;;;;;;;40.30;35.03;;;8.00;99.90;;;;;;4964900;28;20023;-78
2023/12/13 00:55:30;;;;;;;59.97;44.58;;;8.00;99.90;;;;;;4962564;28;20035;-77
2023/12/13 00:57:57;;;;;;;47.97;38.47;;;8.00;99.90;;;;;;4967706;28;20038;-77
2023/12/13 01:00:23;;;;;;;46.10;37.55;;;7.90;99.90;;;;;;4963296;28;20026;-78
2023/12/13 01:02:49;;;;;;;43.42;38.58;;;8.00;99.90;;;;;;4966562;28;20038;-77
2023/12/13 01:05:14;;;;;;;43.00;37.05;;;8.00;99.90;;;;;;4960897;28;20032;-78
2023/12/13 01:07:40;;;;;;;45.63;37.92;;;8.00;99.90;;;;;;4965369;28;20393;-77
2023/12/13 01:10:06;;;;;;;37.80;33.80;;;8.00;99.90;;;;;;4961693;28;20027;-78
2023/12/13 01:12:32;;;;;;;45.58;36.80;;;8.00;99.90;;;;;;4967070;28;20110;-78
2023/12/13 01:14:58;;;;;;;41.35;36.08;;;8.00;99.90;;;;;;4962508;28;20114;-78
2023/12/13 01:17:23;;;;;;;49.50;42.60;;;8.00;99.90;;;;;;4965884;28;20167;-78
2023/12/13 01:19:50;;;;;;;56.88;43.97;;;8.00;99.90;;;;;;4963381;28;20421;-78
2023/12/13 01:22:15;;;;;;;45.58;39.13;;;8.00;99.90;;;;;;4948709;28;20446;-78
2023/12/13 01:24:41;;;;;;;42.08;37.05;;;8.00;99.90;;;;;;4964612;28;20062;-78
2023/12/13 01:27:07;;;;;;;42.80;36.17;;;8.00;99.90;;;;;;4967622;28;20105;-78
2023/12/13 01:29:32;;;;;;;41.10;36.78;;;8.00;99.90;;;;;;4963274;28;20102;-78
2023/12/13 01:31:58;;;;;;;43.83;38.17;;;7.90;99.90;;;;;;4970220;28;20034;-78
2023/12/13 01:34:24;;;;;;;37.88;33.88;;;8.00;99.90;;;;;;4968203;28;20051;-78
2023/12/13 01:36:49;;;;;;;40.88;36.50;;;8.00;99.90;;;;;;4969557;28;20054;-78
2023/12/13 01:39:16;;;;;;;43.55;38.97;;;7.90;99.90;;;;;;4965304;28;20062;-78
2023/12/13 01:41:42;;;;;;;52.35;42.47;;;8.00;99.90;;;;;;4953176;28;20097;-78
2023/12/13 01:44:09;;;;;;;39.92;35.50;;;8.00;99.90;;;;;;4965202;28;20035;-78
2023/12/13 01:46:35;;;;;;;41.72;37.35;;;7.90;99.90;;;;;;4957417;28;20027;-78
2023/12/13 01:49:01;;;;;;;42.58;37.97;;;7.90;99.90;;;;;;4968377;28;20037;-78
2023/12/13 01:51:28;;;;;;;39.63;35.45;;;7.90;99.90;;;;;;4970605;28;20014;-77
2023/12/13 01:53:54;;;;;;;43.17;36.35;;;7.90;99.90;;;;;;4968272;28;20026;-78
2023/12/13 01:56:20;;;;;;;42.42;37.95;;;7.90;99.90;;;;;;4967175;28;20061;-78
2023/12/13 01:58:46;;;;;;;40.67;35.72;;;8.00;99.90;;;;;;4965061;28;20038;-78
2023/12/13 02:01:12;;;;;;;42.60;38.22;;;8.00;99.90;;;;;;4948009;28;20035;-78
2023/12/13 02:03:39;;;;;;;41.47;37.08;;;8.00;99.90;;;;;;4972026;28;20058;-78
2023/12/13 02:06:05;;;;;;;41.78;37.28;;;8.00;99.90;;;;;;4966737;28;20034;-78
2023/12/13 02:08:32;;;;;;;40.50;36.30;;;8.00;99.90;;;;;;4971897;28;20023;-78
2023/12/13 02:10:58;;;;;;;40.53;36.22;;;8.00;99.90;;;;;;4958211;28;20022;-78
2023/12/13 02:13:24;;;;;;;42.42;37.95;;;8.00;99.90;;;;;;4969943;28;20031;-78
2023/12/13 02:15:50;;;;;;;43.75;35.30;;;8.00;99.90;;;;;;4950346;28;20121;-78
2023/12/13 02:18:16;;;;;;;68.20;43.92;;;8.00;99.90;;;;;;4965734;28;20106;-78
2023/12/13 02:20:43;;;;;;;44.53;36.97;;;8.00;99.90;;;;;;4967076;28;20030;-78
2023/12/13 02:23:09;;;;;;;41.65;37.25;;;8.00;99.90;;;;;;4960970;28;20102;-78
2023/12/13 02:25:44;;;;;;;38.28;34.10;;;8.00;99.90;;;;;;4967719;28;20030;-78
2023/12/13 02:28:11;;;;;;;42.75;36.00;;;8.00;99.90;;;;;;4971032;28;20078;-78
2023/12/13 02:30:36;;;;;;;42.03;37.60;;;8.00;99.90;;;;;;4967584;28;20617;-78
2023/12/13 02:33:02;;;;;;;45.30;40.38;;;8.00;99.90;;;;;;4970041;28;20047;-78
2023/12/13 02:35:28;;;;;;;51.95;43.10;;;8.00;99.90;;;;;;4967282;28;20477;-78
2023/12/13 02:37:54;;;;;;;51.42;42.88;;;8.00;99.90;;;;;;4968752;28;20030;-78
2023/12/13 02:40:21;;;;;;;51.63;42.65;;;8.00;99.90;;;;;;4968620;28;20063;-78
2023/12/13 02:42:47;;;;;;;42.08;37.20;;;7.90;99.90;;;;;;4968013;28;20030;-78
2023/12/13 02:45:13;;;;;;;51.10;43.95;;;8.00;99.90;;;;;;4965172;28;20038;-78
2023/12/13 02:47:42;;;;;;;42.13;37.90;;;8.00;99.90;;;;;;4968644;28;20034;-78
2023/12/13 02:50:09;;;;;;;45.10;40.40;;;8.00;99.90;;;;;;4947071;28;20055;-78
2023/12/13 02:52:35;;;;;;;44.78;40.10;;;8.00;99.90;;;;;;4969110;28;20023;-78
2023/12/13 02:55:02;;;;;;;45.25;40.47;;;8.00;99.90;;;;;;4963994;28;20031;-78
2023/12/13 02:57:28;;;;;;;39.30;35.08;;;8.00;99.90;;;;;;4968871;28;20027;-78
2023/12/13 02:59:53;;;;;;;44.22;39.38;;;8.00;99.90;;;;;;4964320;28;20462;-78
2023/12/13 03:02:19;;;;;;;37.92;33.85;;;8.00;99.90;;;;;;4967688;28;20505;-78
2023/12/13 03:04:44;;;;;;;40.03;35.75;;;8.00;99.90;;;;;;4965258;28;20031;-78
2023/12/13 03:07:10;;;;;;;46.35;41.20;;;8.00;99.90;;;;;;4966657;28;20493;-78
2023/12/13 03:09:36;;;;;;;68.50;48.10;;;8.00;99.90;;;;;;4951957;28;20544;-78
2023/12/13 03:12:01;;;;;;;44.60;40.08;;;8.00;99.90;;;;;;4965428;28;20051;-78
2023/12/13 03:14:27;;;;;;;43.88;38.30;;;8.00;99.90;;;;;;4966458;28;20027;-78
2023/12/13 03:16:53;;;;;;;45.35;40.58;;;8.00;99.90;;;;;;4966056;28;20026;-78
2023/12/13 03:19:18;;;;;;;45.38;40.13;;;8.00;99.90;;;;;;4965573;28;20038;-78
2023/12/13 03:21:44;;;;;;;41.88;37.55;;;8.00;99.90;;;;;;4966751;28;20050;-78
2023/12/13 03:24:10;;;;;;;48.35;41.35;;;8.00;99.90;;;;;;4964357;28;20081;-78
2023/12/13 03:26:35;;;;;;;46.85;41.45;;;8.00;99.90;;;;;;4968018;28;20481;-78
2023/12/13 03:29:01;;;;;;;46.40;41.55;;;8.00;99.90;;;;;;4964840;28;20047;-78
2023/12/13 03:31:27;;;;;;;46.65;39.10;;;7.90;99.90;;;;;;4954264;28;20033;-78
2023/12/13 03:33:54;;;;;;;40.85;36.95;;;7.90;99.90;;;;;;4966316;28;20049;-77
2023/12/13 03:36:20;;;;;;;35.63;31.85;;;7.90;99.90;;;;;;4966301;28;20030;-78
2023/12/13 03:38:46;;;;;;;38.63;34.55;;;8.00;99.90;;;;;;4965078;28;20478;-78
2023/12/13 03:41:12;;;;;;;37.78;33.80;;;7.90;99.90;;;;;;4968237;28;20420;-78
2023/12/13 03:43:39;;;;;;;35.80;32.17;;;8.00;99.90;;;;;;4948058;28;20027;-78
2023/12/13 03:46:05;;;;;;;41.67;36.53;;;7.90;99.90;;;;;;4964806;28;20034;-78
2023/12/13 03:48:31;;;;;;;66.38;44.17;;;7.90;99.90;;;;;;4949261;29;20378;-78
2023/12/13 03:50:57;;;;;;;34.97;31.40;;;7.90;99.90;;;;;;4966129;28;20019;-78
2023/12/13 03:53:23;;;;;;;38.60;34.60;;;7.90;99.90;;;;;;4967175;28;20027;-78
2023/12/13 03:55:48;;;;;;;34.58;31.23;;;7.90;99.90;;;;;;4964934;28;20098;-78
2023/12/13 03:58:14;;;;;;;38.65;35.05;;;7.90;99.90;;;;;;4969820;28;20069;-78
2023/12/13 04:00:40;;;;;;;35.00;31.73;;;7.90;99.90;;;;;;4947618;28;20082;-78
2023/12/13 04:03:06;;;;;;;37.50;33.95;;;7.90;99.90;;;;;;4964820;28;20074;-78
2023/12/13 04:05:31;;;;;;;33.35;30.13;;;7.90;99.90;;;;;;4965953;28;20069;-78
2023/12/13 04:07:57;;;;;;;37.53;33.60;;;7.90;99.90;;;;;;4963815;28;20023;-78
2023/12/13 04:10:23;;;;;;;37.10;33.17;;;8.00;99.90;;;;;;4969390;28;20023;-78
2023/12/13 04:12:49;;;;;;;35.10;31.60;;;8.00;99.90;;;;;;4968829;28;20063;-78
2023/12/13 04:15:14;;;;;;;33.85;30.75;;;7.90;99.90;;;;;;4964304;28;20082;-78
2023/12/13 04:17:40;;;;;;;35.25;31.75;;;8.00;99.90;;;;;;4965748;28;20113;-78
2023/12/13 04:20:06;;;;;;;36.78;33.00;;;8.00;99.90;;;;;;4962368;28;20374;-78
2023/12/13 04:22:32;;;;;;;32.92;29.83;;;8.00;99.90;;;;;;4966660;28;21415;-78
2023/12/13 04:24:58;;;;;;;37.00;32.92;;;8.00;99.90;;;;;;4948724;29;20027;-78
2023/12/13 04:27:23;;;;;;;30.27;27.15;;;8.00;99.90;;;;;;4955816;28;20034;-78
2023/12/13 04:29:49;;;;;;;30.35;27.40;;;8.00;99.90;;;;;;4962986;28;20027;-78
2023/12/13 04:32:15;;;;;;;34.50;30.90;;;8.00;99.90;;;;;;4953248;28;20080;-78
2023/12/13 04:34:40;;;;;;;46.70;39.70;;;7.90;99.90;;;;;;4963961;28;20129;-78
2023/12/13 04:37:06;;;;;;;34.10;30.50;;;8.00;99.90;;;;;;4963893;28;20042;-78
2023/12/13 04:39:32;;;;;;;36.13;32.28;;;7.90;99.90;;;;;;4966686;28;20141;-78
2023/12/13 04:41:58;;;;;;;31.98;28.77;;;8.00;99.90;;;;;;4961852;28;20039;-78
2023/12/13 04:44:27;;;;;;;30.50;27.40;;;8.00;99.90;;;;;;4965555;28;20030;-78
2023/12/13 04:46:54;;;;;;;28.70;24.65;;;8.00;99.90;;;;;;4968206;28;20076;-78
2023/12/13 04:49:20;;;;;;;22.95;20.70;;;8.00;99.90;;;;;;4965838;28;20027;-78
2023/12/13 04:51:46;;;;;;;19.65;17.95;;;8.00;99.90;;;;;;4966078;28;20397;-78
2023/12/13 04:54:12;;;;;;;21.17;19.25;;;8.00;99.90;;;;;;4948117;28;20481;-78
2023/12/13 04:56:37;;;;;;;20.83;18.98;;;8.00;99.90;;;;;;4963489;28;20042;-78
2023/12/13 04:59:03;;;;;;;21.00;18.80;;;8.10;99.90;;;;;;4965784;28;20034;-78
2023/12/13 05:01:28;;;;;;;24.92;21.20;;;8.00;99.90;;;;;;4965581;28;20050;-78
2023/12/13 05:03:54;;;;;;;27.63;22.25;;;8.00;99.90;;;;;;4965588;28;20024;-78
2023/12/13 05:06:20;;;;;;;22.38;20.30;;;8.00;99.90;;;;;;4948536;28;20023;-78
2023/12/13 05:08:49;;;;;;;21.23;19.27;;;8.00;99.90;;;;;;4945556;28;20058;-78
2023/12/13 05:11:14;;;;;;;22.98;20.55;;;8.10;99.90;;;;;;4964714;28;20019;-78
2023/12/13 05:13:40;;;;;;;21.65;19.63;;;8.10;99.90;;;;;;4945950;28;20022;-78
2023/12/13 05:16:07;;;;;;;25.50;23.20;;;8.00;99.90;;;;;;4963711;28;20027;-78
2023/12/13 05:18:33;;;;;;;24.20;21.77;;;8.10;99.90;;;;;;4970097;28;20416;-78
2023/12/13 05:20:58;;;;;;;22.77;20.48;;;8.00;99.90;;;;;;4962417;28;20019;-78
2023/12/13 05:23:26;;;;;;;29.70;26.60;;;8.10;99.90;;;;;;4964775;28;20568;-78
2023/12/13 05:25:52;;;;;;;28.58;26.02;;;8.10;99.90;;;;;;4964193;28;20473;-77
2023/12/13 05:28:17;;;;;;;23.65;21.52;;;8.00;99.90;;;;;;4964705;28;20030;-78
2023/12/13 05:30:43;;;;;;;27.60;25.00;;;8.10;99.90;;;;;;4964748;28;20046;-78
2023/12/13 05:33:09;;;;;;;32.45;28.25;;;8.10;99.90;;;;;;4950782;28;20498;-78
2023/12/13 05:35:35;;;;;;;28.25;25.65;;;8.00;99.90;;;;;;4963682;28;20037;-78
2023/12/13 05:38:01;;;;;;;25.33;22.83;;;8.00;99.90;;;;;;4965898;28;20042;-77
2023/12/13 05:40:27;;;;;;;27.30;24.77;;;8.10;99.90;;;;;;4961152;28;20043;-78
2023/12/13 05:42:54;;;;;;;26.27;23.67;;;8.10;99.90;;;;;;4962117;28;20031;-78
2023/12/13 05:45:19;;;;;;;28.63;25.38;;;8.00;99.90;;;;;;4965482;28;20086;-77
2023/12/13 05:47:45;;;;;;;37.10;33.10;;;8.10;99.90;;;;;;4952549;28;20031;-78
2023/12/13 05:50:11;;;;;;;29.35;26.38;;;8.00;99.90;;;;;;4945719;28;20135;-78
2023/12/13 05:52:38;;;;;;;30.88;27.60;;;8.00;99.90;;;;;;4965092;28;20027;-78
2023/12/13 05:55:05;;;;;;;34.10;30.58;;;8.00;99.90;;;;;;4963404;28;20019;-78
2023/12/13 05:57:31;;;;;;;42.08;37.55;;;8.00;99.90;;;;;;4965756;28;20142;-78
2023/12/13 05:59:57;;;;;;;30.05;27.02;;;8.00;99.90;;;;;;4946947;28;20106;-78
2023/12/13 06:02:23;;;;;;;33.53;30.33;;;8.00;99.90;;;;;;4950795;28;20027;-77
2023/12/13 06:04:49;;;;;;;32.53;29.23;;;8.00;99.90;;;;;;4947291;28;20031;-78
2023/12/13 06:07:14;;;;;;;51.50;35.88;;;8.00;99.90;;;;;;4968034;28;20085;-78
2023/12/13 06:09:43;;;;;;;30.10;27.30;;;8.00;99.90;;;;;;4963250;28;20049;-78
2023/12/13 06:12:09;;;;;;;24.40;22.05;;;8.00;99.90;;;;;;4968338;28;20110;-78
2023/12/13 06:14:35;;;;;;;27.48;24.73;;;8.00;99.90;;;;;;4963004;28;20031;-78
2023/12/13 06:17:01;;;;;;;25.27;22.98;;;8.00;99.90;;;;;;4964823;28;20390;-78
2023/12/13 06:19:29;;;;;;;30.67;27.58;;;8.00;99.90;;;;;;4961400;28;20034;-78
2023/12/13 06:21:56;;;;;;;26.90;24.42;;;8.00;99.90;;;;;;4968397;28;20114;-78
2023/12/13 06:24:22;;;;;;;23.90;21.70;;;8.00;99.90;;;;;;4967927;28;20085;-78
2023/12/13 06:26:48;;;;;;;28.35;25.60;;;8.00;99.90;;;;;;4969774;28;20033;-78
2023/12/13 06:29:14;;;;;;;35.38;29.05;;;8.00;99.90;;;;;;4950330;29;20024;-78
2023/12/13 06:31:39;;;;;;;23.00;21.00;;;7.90;99.90;;;;;;4970172;28;20185;-78
2023/12/13 06:34:05;;;;;;;22.85;20.67;;;7.90;99.90;;;;;;4967549;28;20058;-78
2023/12/13 06:36:31;;;;;;;25.38;22.88;;;7.90;99.90;;;;;;4967903;28;20027;-78
2023/12/13 06:38:57;;;;;;;22.85;20.75;;;7.90;99.90;;;;;;4967540;28;20153;-78
2023/12/13 06:41:22;;;;;;;20.92;19.33;;;8.00;99.90;;;;;;4967856;28;20026;-78
2023/12/13 06:43:48;;;;;;;22.02;20.02;;;8.00;99.90;;;;;;4964214;28;20028;-78
2023/12/13 06:46:14;;;;;;;25.52;22.98;;;8.00;99.90;;;;;;4970171;28;20023;-78
2023/12/13 06:48:40;;;;;;;19.80;18.15;;;7.90;99.90;;;;;;4967370;28;20067;-78
2023/12/13 06:51:07;;;;;;;20.52;18.73;;;7.90;99.90;;;;;;4966964;28;20034;-78
2023/12/13 06:53:37;;;;;;;19.85;18.10;;;7.90;99.90;;;;;;4957651;28;20385;-78
2023/12/13 06:56:03;;;;;;;21.88;19.85;;;8.00;99.90;;;;;;4966917;28;20362;-78
2023/12/13 06:58:29;;;;;;;24.38;22.15;;;7.90;99.90;;;;;;4976593;28;20086;-78
2023/12/13 07:00:55;;;;;;;20.98;19.17;;;8.00;99.90;;;;;;4963080;28;20027;-78
2023/12/13 07:03:20;;;;;;;20.35;18.45;;;8.00;99.90;;;;;;4969855;28;20015;-78
2023/12/13 07:05:46;;;;;;;26.55;23.90;;;7.90;99.90;;;;;;4949804;28;20023;-78
2023/12/13 07:08:12;;;;;;;41.92;31.02;;;8.00;99.90;;;;;;4967790;28;20031;-78
2023/12/13 07:10:39;;;;;;;26.45;22.88;;;8.00;99.90;;;;;;4967275;28;20030;-78
2023/12/13 07:13:04;;;;;;;40.25;32.55;;;8.00;99.90;;;;;;4947805;28;20384;-78
2023/12/13 07:15:30;;;;;;;28.50;25.42;;;7.90;99.90;;;;;;4969639;28;20023;-78
2023/12/13 07:17:56;;;;;;;28.05;25.05;;;8.00;99.90;;;;;;4968697;28;20038;-78
2023/12/13 07:20:22;;;;;;;26.40;23.85;;;8.00;99.90;;;;;;4963328;28;20027;-79
2023/12/13 07:22:50;;;;;;;25.35;22.77;;;8.00;99.90;;;;;;4967036;28;20039;-79
2023/12/13 07:25:15;;;;;;;24.85;22.40;;;8.00;99.90;;;;;;4949154;28;20485;-79
2023/12/13 07:27:41;;;;;;;28.92;26.00;;;8.00;99.90;;;;;;4969238;28;20034;-79
2023/12/13 07:30:07;;;;;;;25.48;23.08;;;8.00;99.90;;;;;;4970267;28;20133;-79
2023/12/13 07:32:33;;;;;;;25.63;23.30;;;8.00;99.90;;;;;;4968711;28;20019;-78
2023/12/13 07:34:59;;;;;;;23.15;21.25;;;8.00;99.90;;;;;;4964285;28;20512;-78
2023/12/13 07:37:25;;;;;;;20.63;18.92;;;8.00;99.90;;;;;;4966511;28;20031;-78
2023/12/13 07:39:51;;;;;;;20.58;18.77;;;8.00;99.90;;;;;;4966443;28;20058;-79
2023/12/13 07:42:17;;;;;;;24.80;22.50;;;8.00;99.90;;;;;;4966235;28;20057;-79
2023/12/13 07:44:45;;;;;;;24.17;22.20;;;8.00;99.90;;;;;;4946012;28;20035;-78
2023/12/13 07:47:12;;;;;;;21.13;19.35;;;8.00;99.90;;;;;;4954177;28;20039;-78
2023/12/13 07:49:38;;;;;;;28.30;25.60;;;8.00;99.90;;;;;;4965113;28;20031;-79
2023/12/13 07:52:06;;;;;;;20.60;18.90;;;8.00;99.90;;;;;;4950539;28;20121;-78
2023/12/13 07:54:32;;;;;;;24.73;22.58;;;8.00;99.90;;;;;;4962708;28;20086;-79
2023/12/13 07:56:58;;;;;;;19.67;18.00;;;8.00;99.90;;;;;;4967806;28;20489;-79
2023/12/13 07:59:24;;;;;;;20.10;18.38;;;8.00;99.90;;;;;;4965410;28;20045;-78
2023/12/13 08:01:50;;;;;;;17.67;16.15;;;8.00;99.90;;;;;;4966487;28;20023;-79
2023/12/13 08:04:15;;;;;;;24.88;22.42;;;8.00;99.90;;;;;;4965948;28;20035;-79
2023/12/13 08:06:41;;;;;;;24.60;22.38;;;8.10;99.90;;;;;;4950003;28;20113;-78
2023/12/13 08:09:09;;;;;;;30.40;27.45;;;8.00;99.90;;;;;;4969990;28;20106;-79
2023/12/13 08:11:35;;;;;;;24.55;22.02;;;8.00;99.90;;;;;;4967583;28;20014;-78
2023/12/13 08:14:01;;;;;;;25.67;23.23;;;8.00;99.90;;;;;;4966550;28;20054;-78
2023/12/13 08:16:26;;;;;;;27.88;25.27;;;8.00;99.90;;;;;;4967304;28;20057;-78
2023/12/13 08:18:54;;;;;;;24.10;21.60;;;8.00;99.90;;;;;;4965710;28;20482;-78
2023/12/13 08:21:21;;;;;;;49.75;41.90;;;8.00;99.90;;;;;;4953519;28;20401;-78
2023/12/13 08:23:46;;;;;;;66.05;50.85;;;8.00;99.90;;;;;;4962085;28;20031;-78
2023/12/13 08:26:12;;;;;;;41.58;32.95;;;8.00;99.90;;;;;;4961429;28;20030;-78
2023/12/13 08:28:38;;;;;;;21.98;19.90;;;8.00;99.90;;;;;;4969578;28;20023;-78
2023/12/13 08:31:04;;;;;;;27.33;24.85;;;8.00;99.90;;;;;;4965036;28;20105;-78
2023/12/13 08:33:30;;;;;;;24.63;22.17;;;8.00;99.90;;;;;;4967469;28;20086;-78
2023/12/13 08:35:56;;;;;;;28.38;25.55;;;8.00;99.90;;;;;;4955658;28;20035;-78
2023/12/13 08:38:23;;;;;;;24.35;21.98;;;8.00;99.90;;;;;;4971266;28;20027;-78
2023/12/13 08:40:48;;;;;;;18.95;17.27;;;8.00;99.90;;;;;;4965356;28;20038;-78
2023/12/13 08:43:14;;;;;;;21.02;19.35;;;8.00;99.90;;;;;;4965465;28;20030;-78
2023/12/13 08:45:41;;;;;;;20.42;18.83;;;8.00;99.90;;;;;;4964959;28;20357;-78
2023/12/13 08:48:07;;;;;;;16.73;15.38;;;8.00;99.90;;;;;;4967364;28;20572;-78
2023/12/13 08:50:33;;;;;;;16.30;14.95;;;8.00;99.90;;;;;;4965203;28;20106;-78
2023/12/13 08:52:59;;;;;;;17.88;16.45;;;8.10;99.90;;;;;;4969885;28;20022;-78
2023/12/13 08:55:24;;;;;;;15.65;14.45;;;8.10;99.90;;;;;;4962713;28;20505;-78
2023/12/13 08:57:50;;;;;;;19.33;17.35;;;8.00;99.90;;;;;;4971065;28;20030;-78
2023/12/13 09:00:16;;;;;;;21.45;19.65;;;8.10;99.90;;;;;;4952379;29;20031;-78
2023/12/13 09:02:42;;;;;;;24.30;22.00;;;8.10;99.90;;;;;;4969645;28;20031;-78
2023/12/13 09:05:08;;;;;;;24.05;21.83;;;8.10;99.90;;;;;;4944873;28;20490;-78
2023/12/13 09:07:33;;;;;;;19.80;17.88;;;8.10;99.90;;;;;;4968859;28;20030;-78
2023/12/13 09:09:59;;;;;;;16.20;14.73;;;8.00;99.90;;;;;;4963415;28;20039;-78
2023/12/13 09:12:24;;;;;;;15.65;14.25;;;8.00;99.90;;;;;;4965260;28;20028;-78
2023/12/13 09:14:50;;;;;;;19.20;17.38;;;8.00;99.90;;;;;;4960863;28;20031;-78
2023/12/13 09:17:16;;;;;;;15.77;14.50;;;8.00;99.90;;;;;;4949930;28;20031;-78
2023/12/13 09:19:41;;;;;;;16.02;14.75;;;8.00;99.90;;;;;;4964829;28;20191;-78
2023/12/13 09:22:07;;;;;;;17.95;16.38;;;8.00;99.90;;;;;;4965516;28;20031;-78
2023/12/13 09:24:34;;;;;;;18.13;16.45;;;8.10;99.90;;;;;;4966281;28;20035;-78
2023/12/13 09:26:59;;;;;;;20.50;18.70;;;8.10;99.90;;;;;;4967973;28;20078;-78
2023/12/13 09:29:25;;;;;;;21.80;19.90;;;8.10;99.90;;;;;;4963084;28;20489;-78
2023/12/13 09:31:51;;;;;;;22.25;18.83;;;8.10;99.90;;;;;;4964256;28;20031;-78
2023/12/13 09:34:17;;;;;;;18.70;17.10;;;8.10;99.90;;;;;;4947333;28;20154;-78
2023/12/13 09:36:43;;;;;;;21.83;19.83;;;8.10;99.90;;;;;;4968500;28;20113;-78
2023/12/13 09:39:08;;;;;;;19.73;17.65;;;8.00;99.90;;;;;;4964265;28;20110;-78
2023/12/13 09:41:53;;;;;;;18.02;16.23;;;8.00;99.90;;;;;;4960091;28;20113;-78
2023/12/13 09:44:23;;;;;;;20.63;18.92;;;8.00;99.90;;;;;;4959841;28;20094;-78
2023/12/13 09:46:52;;;;;;;16.98;15.63;;;8.00;99.90;;;;;;4964110;28;20232;-78
2023/12/13 09:49:17;;;;;;;15.70;14.57;;;8.00;99.90;;;;;;4963434;28;20034;-79
2023/12/13 09:51:46;;;;;;;18.38;16.80;;;8.00;99.90;;;;;;4964061;28;20417;-78
2023/12/13 09:54:12;;;;;;;14.48;13.13;;;8.00;99.90;;;;;;4962830;28;20041;-78
2023/12/13 09:56:38;;;;;;;16.25;14.85;;;8.00;99.90;;;;;;4969036;28;20099;-79
2023/12/13 09:59:04;;;;;;;14.48;13.07;;;8.00;99.90;;;;;;4956355;28;20034;-79
2023/12/13 10:01:29;;;;;;;19.65;17.80;;;8.00;99.90;;;;;;4965077;28;20034;-78
2023/12/13 10:03:55;;;;;;;15.23;14.13;;;8.00;99.90;;;;;;4971797;28;20026;-79
2023/12/13 10:06:21;;;;;;;16.50;15.30;;;8.10;99.90;;;;;;4966386;28;20121;-78
2023/12/13 10:08:54;;;;;;;15.82;14.63;;;8.00;99.90;;;;;;4958385;28;20118;-80
2023/12/13 10:11:20;;;;;;;16.52;15.20;;;8.10;99.90;;;;;;4958331;28;20027;-80
2023/12/13 10:13:48;;;;;;;20.05;18.33;;;8.10;99.90;;;;;;4970277;28;20023;-80
2023/12/13 10:16:18;;;;;;;46.65;42.10;;;8.10;99.90;;;;;;4967636;28;20054;-79
2023/12/13 10:18:43;;;;;;;49.72;44.72;;;8.10;99.90;;;;;;4967904;28;20054;-79
2023/12/13 10:21:10;;;;;;;35.78;32.33;;;8.10;99.90;;;;;;4949690;28;20485;-80
2023/12/13 10:23:36;;;;;;;32.15;29.25;;;8.10;99.90;;;;;;4971635;28;20058;-80
2023/12/13 10:26:03;;;;;;;31.30;28.42;;;8.10;99.90;;;;;;4964977;28;20031;-80
2023/12/13 10:28:29;;;;;;;35.28;31.70;;;8.10;99.90;;;;;;4971374;28;20106;-80
2023/12/13 10:30:54;;;;;;;28.92;26.42;;;8.10;99.90;;;;;;4966460;28;20122;-80
2023/12/13 10:33:20;;;;;;;24.70;22.48;;;8.10;99.90;;;;;;4970597;28;20058;-80
2023/12/13 10:35:49;;;;;;;22.17;19.98;;;8.10;99.90;;;;;;4951078;28;20038;-80
2023/12/13 10:38:15;;;;;;;19.13;17.40;;;8.10;99.90;;;;;;4969090;28;20089;-80
2023/12/13 10:40:42;;;;;;;20.23;18.40;;;8.10;99.90;;;;;;4970977;28;20378;-80
2023/12/13 10:43:10;;;;;;;16.95;15.45;;;8.20;99.90;;;;;;4954127;28;20035;-80
2023/12/13 10:45:41;;;;;;;15.75;14.30;;;8.20;99.90;;;;;;4958298;28;20125;-80
2023/12/13 10:48:10;;;;;;;13.07;11.90;;;8.20;99.90;;;;;;4953946;28;20031;-80
2023/12/13 10:50:36;;;;;;;10.32;9.57;;;8.20;99.90;;;;;;4964171;28;20489;-80
2023/12/13 10:53:02;;;;;;;8.55;8.00;;;8.30;99.90;;;;;;4967576;28;20033;-80
2023/12/13 10:55:28;;;;;;;10.05;9.45;;;8.30;99.90;;;;;;4966466;28;20047;-80
2023/12/13 10:57:55;;;;;;;7.70;7.30;;;8.30;99.90;;;;;;4968041;28;20513;-79
2023/12/13 11:00:25;;;;;;;13.70;12.52;;;8.30;99.90;;;;;;4969486;28;20041;-79
2023/12/13 11:02:55;;;;;;;21.27;19.17;;;8.30;99.90;;;;;;4969171;28;20023;-80
2023/12/13 11:05:21;;;;;;;28.85;23.45;;;8.30;99.90;;;;;;4966266;28;20027;-80
2023/12/13 11:07:47;;;;;;;23.10;19.60;;;8.30;99.90;;;;;;4956823;28;20042;-80
2023/12/13 11:10:14;;;;;;;23.73;17.40;;;8.30;99.90;;;;;;4967314;28;20027;-80
2023/12/13 11:12:50;;;;;;;26.33;22.02;;;8.40;99.90;;;;;;4952361;28;20549;-79
2023/12/13 11:15:17;;;;;;;23.33;20.33;;;8.40;99.90;;;;;;4964564;28;20023;-79
2023/12/13 11:17:59;;;;;;;16.63;15.13;;;8.40;99.90;;;;;;4970026;28;20035;-80
2023/12/13 11:20:24;;;;;;;23.38;21.27;;;8.30;99.90;;;;;;4964894;28;20033;-79
2023/12/13 11:22:54;;;;;;;20.35;18.25;;;8.30;99.90;;;;;;4971193;28;20030;-80
2023/12/13 11:25:21;;;;;;;24.13;21.80;;;8.40;99.90;;;;;;4966543;28;20039;-80
2023/12/13 11:27:57;;;;;;;24.13;21.77;;;8.30;99.90;;;;;;4965161;28;20026;-80
2023/12/13 11:30:23;;;;;;;23.42;21.23;;;8.30;99.90;;;;;;4947432;28;20035;-79
2023/12/13 11:32:49;;;;;;;23.35;21.05;;;8.30;99.90;;;;;;4970930;28;20477;-79
2023/12/13 11:35:17;;;;;;;23.73;21.33;;;8.30;99.90;;;;;;4964276;28;20055;-79
2023/12/13 11:37:49;;;;;;;21.85;19.88;;;8.30;99.90;;;;;;4968311;28;20035;-80
2023/12/13 11:40:15;;;;;;;16.70;15.32;;;8.30;99.90;;;;;;4967131;28;20086;-79
2023/12/13 11:42:40;;;;;;;20.58;18.83;;;8.30;99.90;;;;;;4972455;28;20117;-80
2023/12/13 11:45:06;;;;;;;19.60;18.00;;;8.40;99.90;;;;;;4964676;28;20019;-80
2023/12/13 11:47:32;;;;;;;20.65;18.95;;;8.40;99.90;;;;;;4968754;28;20489;-79
2023/12/13 11:49:58;;;;;;;17.08;15.57;;;8.40;99.90;;;;;;4963731;28;20041;-79
2023/12/13 11:52:24;;;;;;;16.05;14.75;;;8.40;99.90;;;;;;4969349;28;20031;-79
2023/12/13 11:54:50;;;;;;;17.05;15.75;;;8.40;99.90;;;;;;4964751;28;20031;-79
2023/12/13 11:57:18;;;;;;;17.85;16.05;;;8.40;99.90;;;;;;4966302;28;20023;-79
2023/12/13 11:59:46;;;;;;;16.10;14.60;;;8.40;99.90;;;;;;4965399;28;20031;-80
2023/12/13 12:02:16;;;;;;;18.42;16.83;;;8.40;99.90;;;;;;4968237;28;20066;-79
2023/12/13 12:04:42;;;;;;;16.55;15.30;;;8.40;99.90;;;;;;4946306;28;20445;-79
2023/12/13 12:07:16;;;;;;;14.77;13.50;;;8.40;99.90;;;;;;4963629;28;20134;-79
2023/12/13 12:09:49;;;;;;;13.40;12.48;;;8.40;99.90;;;;;;4948941;28;20515;-79
2023/12/13 12:12:16;;;;;;;13.45;12.45;;;8.40;99.90;;;;;;4966122;28;20482;-79
2023/12/13 12:14:45;;;;;;;17.25;15.82;;;8.50;99.90;;;;;;4961948;28;20063;-80
2023/12/13 12:17:11;;;;;;;19.50;17.70;;;8.50;99.90;;;;;;4969641;28;20110;-80
2023/12/13 12:19:38;;;;;;;20.13;18.25;;;8.50;99.90;;;;;;4963306;28;20109;-79
2023/12/13 12:22:04;;;;;;;22.20;20.30;;;8.50;99.90;;;;;;4967023;28;20030;-80
2023/12/13 12:24:30;;;;;;;19.92;18.13;;;8.50;99.90;;;;;;4966359;28;20035;-80
2023/12/13 12:27:07;;;;;;;19.50;17.80;;;8.50;99.90;;;;;;4965838;28;20521;-80
2023/12/13 12:29:33;;;;;;;17.83;16.33;;;8.50;99.90;;;;;;4963052;28;20038;-80
2023/12/13 12:31:58;;;;;;;16.23;14.93;;;8.50;99.90;;;;;;4970095;28;20406;-79
2023/12/13 12:34:25;;;;;;;14.48;13.35;;;8.50;99.90;;;;;;4963807;28;20572;-80